sensor_id;sensor_type;location;lat;lon;timestamp;pressure;altitude;pressure_sealevel;temperature;humidity
48792;BME280;34587;48.816;9.420;2023-02-17T00:02:16;99647.94;;;9.26;60.44
48792;BME280;34587;48.816;9.420;2023-02-17T00:04:41;99647.97;;;9.58;57.84
48792;BME280;34587;48.816;9.420;2023-02-17T00:07:07;99654.00;;;9.52;57.21
48792;BME280;34587;48.816;9.420;2023-02-17T00:09:32;99652.28;;;9.79;56.08
48792;BME280;34587;48.816;9.420;2023-02-17T00:11:57;99650.53;;;9.66;58.00
48792;BME280;34587;48.816;9.420;2023-02-17T00:14:22;99648.81;;;9.78;56.52
48792;BME280;34587;48.816;9.420;2023-02-17T00:16:48;99640.19;;;9.84;55.89
48792;BME280;34587;48.816;9.420;2023-02-17T00:19:13;99635.84;;;10.06;55.11
48792;BME280;34587;48.816;9.420;2023-02-17T00:21:53;99642.75;;;9.90;55.95
48792;BME280;34587;48.816;9.420;2023-02-17T00:24:19;99630.69;;;9.97;56.16
48792;BME280;34587;48.816;9.420;2023-02-17T00:26:44;99628.00;;;10.41;53.45
48792;BME280;34587;48.816;9.420;2023-02-17T00:29:09;99633.22;;;10.35;54.11
48792;BME280;34587;48.816;9.420;2023-02-17T00:31:35;99629.75;;;10.33;54.02
48792;BME280;34587;48.816;9.420;2023-02-17T00:34:00;99626.25;;;10.43;53.69
48792;BME280;34587;48.816;9.420;2023-02-17T00:36:26;99628.81;;;10.51;52.75
48792;BME280;34587;48.816;9.420;2023-02-17T00:38:53;99631.44;;;10.43;53.56
48792;BME280;34587;48.816;9.420;2023-02-17T00:41:19;99631.41;;;10.48;52.74
48792;BME280;34587;48.816;9.420;2023-02-17T00:43:45;99628.84;;;10.49;53.41
48792;BME280;34587;48.816;9.420;2023-02-17T00:46:10;99633.13;;;10.53;52.96
48792;BME280;34587;48.816;9.420;2023-02-17T00:48:36;99630.53;;;10.55;53.00
48792;BME280;34587;48.816;9.420;2023-02-17T00:51:01;99633.16;;;10.50;53.07
48792;BME280;34587;48.816;9.420;2023-02-17T00:53:27;99628.84;;;10.46;53.49
48792;BME280;34587;48.816;9.420;2023-02-17T00:55:52;99629.72;;;10.45;53.89
48792;BME280;34587;48.816;9.420;2023-02-17T00:58:18;99635.81;;;10.32;54.08
48792;BME280;34587;48.816;9.420;2023-02-17T05:16:52;99538.38;;;9.88;58.69
48792;BME280;34587;48.816;9.420;2023-02-17T05:19:17;99542.66;;;9.91;58.57
48792;BME280;34587;48.816;9.420;2023-02-17T05:21:43;99534.91;;;9.92;58.71
48792;BME280;34587;48.816;9.420;2023-02-17T05:24:08;99539.19;;;9.95;58.58
48792;BME280;34587;48.816;9.420;2023-02-17T05:26:33;99540.09;;;9.92;58.55
48792;BME280;34587;48.816;9.420;2023-02-17T05:28:58;99536.59;;;9.99;58.31
48792;BME280;34587;48.816;9.420;2023-02-17T05:31:24;99538.34;;;9.94;58.67
48792;BME280;34587;48.816;9.420;2023-02-17T05:33:49;99548.72;;;9.90;58.99
48792;BME280;34587;48.816;9.420;2023-02-17T05:36:15;99543.50;;;10.00;58.60
48792;BME280;34587;48.816;9.420;2023-02-17T05:38:40;99549.59;;;9.79;59.49
48792;BME280;34587;48.816;9.420;2023-02-17T05:41:06;99548.72;;;9.84;59.75
48792;BME280;34587;48.816;9.420;2023-02-17T05:43:31;99550.47;;;9.83;60.03
48792;BME280;34587;48.816;9.420;2023-02-17T05:46:03;99551.31;;;9.87;60.01
48792;BME280;34587;48.816;9.420;2023-02-17T05:48:29;99552.16;;;9.90;59.97
48792;BME280;34587;48.816;9.420;2023-02-17T05:50:54;99554.75;;;9.96;60.06
48792;BME280;34587;48.816;9.420;2023-02-17T05:53:19;99554.78;;;9.75;61.22
48792;BME280;34587;48.816;9.420;2023-02-17T05:55:45;99560.81;;;9.83;60.73
48792;BME280;34587;48.816;9.420;2023-02-17T05:58:10;99560.78;;;9.86;60.62
48792;BME280;34587;48.816;9.420;2023-02-17T06:00:35;99561.69;;;9.82;60.70
48792;BME280;34587;48.816;9.420;2023-02-17T06:03:01;99571.16;;;9.89;60.53
48792;BME280;34587;48.816;9.420;2023-02-17T06:05:26;99574.59;;;9.88;60.74
48792;BME280;34587;48.816;9.420;2023-02-17T06:07:51;99576.31;;;9.95;60.56
48792;BME280;34587;48.816;9.420;2023-02-17T06:10:17;99572.03;;;9.84;60.54
48792;BME280;34587;48.816;9.420;2023-02-17T06:12:42;99575.47;;;9.86;61.00
48792;BME280;34587;48.816;9.420;2023-02-17T06:15:08;99583.22;;;9.90;60.77
48792;BME280;34587;48.816;9.420;2023-02-17T06:17:33;99572.03;;;9.81;61.04
48792;BME280;34587;48.816;9.420;2023-02-17T06:19:59;99574.66;;;9.64;62.15
48792;BME280;34587;48.816;9.420;2023-02-17T06:22:24;99578.94;;;9.78;61.63
48792;BME280;34587;48.816;9.420;2023-02-17T06:24:49;99579.81;;;9.79;61.69
48792;BME280;34587;48.816;9.420;2023-02-17T06:27:14;99586.66;;;9.95;61.23
48792;BME280;34587;48.816;9.420;2023-02-17T06:29:40;99585.78;;;9.99;61.60
48792;BME280;34587;48.816;9.420;2023-02-17T06:32:06;99591.84;;;9.97;61.20
48792;BME280;34587;48.816;9.420;2023-02-17T06:34:31;99587.56;;;9.87;61.84
48792;BME280;34587;48.816;9.420;2023-02-17T06:36:57;99597.91;;;9.93;61.95
48792;BME280;34587;48.816;9.420;2023-02-17T06:39:22;99584.97;;;9.82;62.30
48792;BME280;34587;48.816;9.420;2023-02-17T06:41:47;99583.25;;;9.87;62.25
48792;BME280;34587;48.816;9.420;2023-02-17T06:44:13;99590.16;;;9.91;62.66
48792;BME280;34587;48.816;9.420;2023-02-17T06:46:38;99587.56;;;9.81;62.79
48792;BME280;34587;48.816;9.420;2023-02-17T06:49:03;99584.13;;;9.71;63.82
48792;BME280;34587;48.816;9.420;2023-02-17T06:51:29;99581.50;;;9.89;63.51
48792;BME280;34587;48.816;9.420;2023-02-17T06:53:54;99585.81;;;9.98;63.22
48792;BME280;34587;48.816;9.420;2023-02-17T06:56:20;99584.91;;;10.00;63.24
48792;BME280;34587;48.816;9.420;2023-02-17T06:58:46;99592.69;;;9.99;63.82
48792;BME280;34587;48.816;9.420;2023-02-17T07:01:20;99588.38;;;9.99;63.79
48792;BME280;34587;48.816;9.420;2023-02-17T07:03:46;99585.81;;;9.86;64.41
48792;BME280;34587;48.816;9.420;2023-02-17T07:06:11;99591.81;;;10.08;63.87
48792;BME280;34587;48.816;9.420;2023-02-17T07:08:36;99592.69;;;10.03;64.04
48792;BME280;34587;48.816;9.420;2023-02-17T07:11:09;99600.41;;;10.22;63.96
48792;BME280;34587;48.816;9.420;2023-02-17T07:13:35;99597.84;;;10.11;64.25
48792;BME280;34587;48.816;9.420;2023-02-17T07:16:01;99602.19;;;10.11;64.20
48792;BME280;34587;48.816;9.420;2023-02-17T07:18:26;99603.88;;;10.09;64.31
48792;BME280;34587;48.816;9.420;2023-02-17T07:20:52;99602.19;;;10.11;64.70
48792;BME280;34587;48.816;9.420;2023-02-17T07:23:17;99605.63;;;10.16;64.90
48792;BME280;34587;48.816;9.420;2023-02-17T07:25:42;99608.16;;;10.19;64.12
48792;BME280;34587;48.816;9.420;2023-02-17T07:28:08;99611.63;;;10.19;64.93
48792;BME280;34587;48.816;9.420;2023-02-17T07:30:40;99602.97;;;10.23;64.28
48792;BME280;34587;48.816;9.420;2023-02-17T07:33:06;99611.63;;;10.18;64.23
48792;BME280;34587;48.816;9.420;2023-02-17T07:35:32;99608.19;;;10.20;64.46
48792;BME280;34587;48.816;9.420;2023-02-17T07:37:58;99612.47;;;10.23;64.48
48792;BME280;34587;48.816;9.420;2023-02-17T07:40:24;99606.47;;;10.16;64.89
48792;BME280;34587;48.816;9.420;2023-02-17T07:42:50;99603.88;;;10.24;64.52
48792;BME280;34587;48.816;9.420;2023-02-17T07:45:15;99608.16;;;10.23;64.56
48792;BME280;34587;48.816;9.420;2023-02-17T07:47:40;99609.88;;;10.20;64.80
48792;BME280;34587;48.816;9.420;2023-02-17T07:50:06;99598.69;;;10.30;64.22
48792;BME280;34587;48.816;9.420;2023-02-17T07:52:32;99600.41;;;10.31;64.81
48792;BME280;34587;48.816;9.420;2023-02-17T07:54:57;99615.91;;;10.40;64.08
48792;BME280;34587;48.816;9.420;2023-02-17T07:57:22;99613.31;;;10.39;64.64
48792;BME280;34587;48.816;9.420;2023-02-17T07:59:48;99616.75;;;10.39;64.31
48792;BME280;34587;48.816;9.420;2023-02-17T08:02:13;99618.47;;;10.43;64.08
48792;BME280;34587;48.816;9.420;2023-02-17T08:04:38;99614.13;;;10.48;64.49
48792;BME280;34587;48.816;9.420;2023-02-17T08:07:04;99626.28;;;10.37;64.66
48792;BME280;34587;48.816;9.420;2023-02-17T08:09:29;99626.25;;;10.49;64.79
48792;BME280;34587;48.816;9.420;2023-02-17T08:12:17;99621.06;;;10.46;64.57
48792;BME280;34587;48.816;9.420;2023-02-17T08:15:03;99619.34;;;10.42;64.99
48792;BME280;34587;48.816;9.420;2023-02-17T08:17:28;99612.41;;;10.55;64.86
48792;BME280;34587;48.816;9.420;2023-02-17T08:19:54;99615.81;;;10.59;64.92
48792;BME280;34587;48.816;9.420;2023-02-17T08:22:20;99614.91;;;10.75;64.79
48792;BME280;34587;48.816;9.420;2023-02-17T08:24:45;99611.34;;;10.90;64.59
48792;BME280;34587;48.816;9.420;2023-02-17T08:27:12;99614.69;;;11.10;63.96
48792;BME280;34587;48.816;9.420;2023-02-17T08:29:38;99610.19;;;11.30;63.39
48792;BME280;34587;48.816;9.420;2023-02-17T08:32:03;99605.84;;;11.36;63.02
48792;BME280;34587;48.816;9.420;2023-02-17T08:34:29;99611.88;;;11.39;63.51
48792;BME280;34587;48.816;9.420;2023-02-17T08:36:58;99609.38;;;11.27;63.93
48792;BME280;34587;48.816;9.420;2023-02-17T08:39:23;99601.66;;;11.18;64.21
48792;BME280;34587;48.816;9.420;2023-02-17T08:41:50;99607.66;;;11.21;64.58
48792;BME280;34587;48.816;9.420;2023-02-17T08:44:16;99603.41;;;11.14;65.08
48792;BME280;34587;48.816;9.420;2023-02-17T08:46:43;99615.47;;;11.20;65.20
48792;BME280;34587;48.816;9.420;2023-02-17T08:49:10;99614.59;;;11.22;65.35
48792;BME280;34587;48.816;9.420;2023-02-17T08:51:35;99612.00;;;11.24;65.27
48792;BME280;34587;48.816;9.420;2023-02-17T08:54:03;99610.28;;;11.20;65.55
48792;BME280;34587;48.816;9.420;2023-02-17T08:56:28;99619.00;;;11.13;65.95
48792;BME280;34587;48.816;9.420;2023-02-17T08:58:54;99619.00;;;11.06;66.23
48792;BME280;34587;48.816;9.420;2023-02-17T09:01:20;99612.91;;;11.15;66.26
48792;BME280;34587;48.816;9.420;2023-02-17T09:03:48;99629.31;;;11.22;66.63
48792;BME280;34587;48.816;9.420;2023-02-17T09:06:14;99618.84;;;11.34;66.47
48792;BME280;34587;48.816;9.420;2023-02-17T09:08:40;99616.09;;;11.49;65.76
48792;BME280;34587;48.816;9.420;2023-02-17T09:11:07;99608.19;;;11.65;64.83
48792;BME280;34587;48.816;9.420;2023-02-17T09:13:33;99609.94;;;11.63;65.22
48792;BME280;34587;48.816;9.420;2023-02-17T09:15:58;99618.75;;;11.46;66.30
48792;BME280;34587;48.816;9.420;2023-02-17T09:18:24;99626.53;;;11.45;66.73
48792;BME280;34587;48.816;9.420;2023-02-17T09:20:50;99627.44;;;11.42;66.77
48792;BME280;34587;48.816;9.420;2023-02-17T09:23:16;99618.97;;;11.16;67.60
48792;BME280;34587;48.816;9.420;2023-02-17T09:25:42;99631.09;;;11.14;68.29
48792;BME280;34587;48.816;9.420;2023-02-17T09:28:07;99626.78;;;11.11;68.55
48792;BME280;34587;48.816;9.420;2023-02-17T09:30:33;99626.81;;;11.08;68.84
48792;BME280;34587;48.816;9.420;2023-02-17T09:32:58;99634.63;;;11.03;68.96
48792;BME280;34587;48.816;9.420;2023-02-17T09:35:24;99645.81;;;11.10;69.16
48792;BME280;34587;48.816;9.420;2023-02-17T09:37:50;99638.09;;;11.02;69.42
48792;BME280;34587;48.816;9.420;2023-02-17T09:40:21;99631.97;;;11.10;69.05
48792;BME280;34587;48.816;9.420;2023-02-17T09:42:48;99635.41;;;11.13;69.33
48792;BME280;34587;48.816;9.420;2023-02-17T09:45:19;99630.16;;;11.27;68.80
48792;BME280;34587;48.816;9.420;2023-02-17T09:47:49;99636.09;;;11.38;68.54
48792;BME280;34587;48.816;9.420;2023-02-17T09:50:28;99636.97;;;11.39;68.36
48792;BME280;34587;48.816;9.420;2023-02-17T09:55:56;99636.88;;;11.49;68.06
48792;BME280;34587;48.816;9.420;2023-02-17T09:58:31;99639.47;;;11.52;67.93
48792;BME280;34587;48.816;9.420;2023-02-17T10:01:00;99644.56;;;11.60;67.90
48792;BME280;34587;48.816;9.420;2023-02-17T10:03:36;99637.53;;;11.73;67.59
48792;BME280;34587;48.816;9.420;2023-02-17T10:06:23;99636.53;;;11.92;67.13
48792;BME280;34587;48.816;9.420;2023-02-17T10:08:54;99625.19;;;12.02;66.61
48792;BME280;34587;48.816;9.420;2023-02-17T10:11:32;99632.22;;;11.94;66.99
48792;BME280;34587;48.816;9.420;2023-02-17T10:14:01;99639.97;;;11.96;67.35
48792;BME280;34587;48.816;9.420;2023-02-17T10:16:32;99637.19;;;12.13;66.39
48792;BME280;34587;48.816;9.420;2023-02-17T10:19:04;99640.56;;;12.24;66.39
48792;BME280;34587;48.816;9.420;2023-02-17T10:21:41;99636.13;;;12.33;66.03
48792;BME280;34587;48.816;9.420;2023-02-17T10:24:08;99640.31;;;12.42;66.01
48792;BME280;34587;48.816;9.420;2023-02-17T10:26:56;99632.34;;;12.59;65.39
48792;BME280;34587;48.816;9.420;2023-02-17T10:34:36;99630.66;;;13.75;61.48
48792;BME280;34587;48.816;9.420;2023-02-17T10:37:03;99632.44;;;13.73;61.62
48792;BME280;34587;48.816;9.420;2023-02-17T10:39:46;99637.13;;;13.51;62.50
48792;BME280;34587;48.816;9.420;2023-02-17T10:42:26;99629.13;;;13.06;63.39
48792;BME280;34587;48.816;9.420;2023-02-17T10:44:53;99620.28;;;13.17;63.06
48792;BME280;34587;48.816;9.420;2023-02-17T10:47:21;99615.88;;;13.76;61.47
48792;BME280;34587;48.816;9.420;2023-02-17T10:49:49;99620.19;;;14.25;59.62
48792;BME280;34587;48.816;9.420;2023-02-17T10:52:21;99619.41;;;13.72;61.13
48792;BME280;34587;48.816;9.420;2023-02-17T10:54:56;99620.13;;;13.81;61.10
48792;BME280;34587;48.816;9.420;2023-02-17T10:57:27;99616.88;;;13.69;62.07
48792;BME280;34587;48.816;9.420;2023-02-17T10:59:56;99622.53;;;13.92;61.26
48792;BME280;34587;48.816;9.420;2023-02-17T11:02:44;99607.94;;;13.82;61.75
48792;BME280;34587;48.816;9.420;2023-02-17T11:05:38;99611.41;;;13.82;61.70
48792;BME280;34587;48.816;9.420;2023-02-17T11:08:24;99606.59;;;13.61;62.79
48792;BME280;34587;48.816;9.420;2023-02-17T11:11:01;99607.53;;;13.57;62.96
48792;BME280;34587;48.816;9.420;2023-02-17T11:15:59;99590.44;;;13.39;63.37
48792;BME280;34587;48.816;9.420;2023-02-17T11:18:29;99600.63;;;13.54;63.42
48792;BME280;34587;48.816;9.420;2023-02-17T11:21:00;99595.28;;;13.63;62.43
48792;BME280;34587;48.816;9.420;2023-02-17T11:23:25;99594.22;;;13.72;62.21
48792;BME280;34587;48.816;9.420;2023-02-17T11:26:09;99590.97;;;13.61;62.71
48792;BME280;34587;48.816;9.420;2023-02-17T11:28:35;99589.03;;;13.74;62.60
48792;BME280;34587;48.816;9.420;2023-02-17T11:31:00;99585.00;;;13.54;63.93
48792;BME280;34587;48.816;9.420;2023-02-17T11:33:38;99584.81;;;13.09;65.57
48792;BME280;34587;48.816;9.420;2023-02-17T11:36:06;99584.16;;;12.95;67.52
48792;BME280;34587;48.816;9.420;2023-02-17T11:38:41;99578.25;;;12.84;67.52
48792;BME280;34587;48.816;9.420;2023-02-17T11:41:06;99577.31;;;12.91;67.45
48792;BME280;34587;48.816;9.420;2023-02-17T11:43:33;99570.28;;;12.96;67.71
48792;BME280;34587;48.816;9.420;2023-02-17T11:48:50;99572.28;;;12.79;68.87
48792;BME280;34587;48.816;9.420;2023-02-17T11:57:23;99584.78;;;12.52;69.94
48792;BME280;34587;48.816;9.420;2023-02-17T12:00:38;99590.78;;;12.57;69.86
48792;BME280;34587;48.816;9.420;2023-02-17T12:06:20;99589.72;;;12.71;69.54
48792;BME280;34587;48.816;9.420;2023-02-17T12:17:01;99596.72;;;12.66;70.22
48792;BME280;34587;48.816;9.420;2023-02-17T12:19:44;99603.69;;;12.64;71.58
48792;BME280;34587;48.816;9.420;2023-02-17T12:22:18;99596.97;;;12.46;73.68
48792;BME280;34587;48.816;9.420;2023-02-17T12:33:32;99600.31;;;12.55;71.74
48792;BME280;34587;48.816;9.420;2023-02-17T12:36:03;99596.81;;;12.59;71.77
48792;BME280;34587;48.816;9.420;2023-02-17T12:38:33;99595.19;;;12.49;71.95
48792;BME280;34587;48.816;9.420;2023-02-17T12:41:10;99589.81;;;12.65;71.44
48792;BME280;34587;48.816;9.420;2023-02-17T12:46:09;99579.19;;;12.80;70.18
48792;BME280;34587;48.816;9.420;2023-02-17T12:48:41;99577.16;;;13.00;69.18
48792;BME280;34587;48.816;9.420;2023-02-17T12:51:28;99582.06;;;13.22;69.38
48792;BME280;34587;48.816;9.420;2023-02-17T12:59:34;99555.63;;;13.46;66.91
48792;BME280;34587;48.816;9.420;2023-02-17T13:02:03;99552.13;;;13.47;67.34
48792;BME280;34587;48.816;9.420;2023-02-17T13:04:30;99554.72;;;13.50;67.00
48792;BME280;34587;48.816;9.420;2023-02-17T13:09:47;99557.47;;;13.41;67.80
48792;BME280;34587;48.816;9.420;2023-02-17T13:14:56;99558.34;;;13.40;67.29
48792;BME280;34587;48.816;9.420;2023-02-17T13:17:39;99562.69;;;13.40;67.35
48792;BME280;34587;48.816;9.420;2023-02-17T13:22:42;99564.59;;;13.30;67.76
48792;BME280;34587;48.816;9.420;2023-02-17T13:25:28;99568.13;;;13.26;68.62
48792;BME280;34587;48.816;9.420;2023-02-17T13:27:54;99571.66;;;13.19;68.38
48792;BME280;34587;48.816;9.420;2023-02-17T13:32:45;99564.41;;;13.39;68.01
48792;BME280;34587;48.816;9.420;2023-02-17T13:37:40;99558.19;;;13.49;67.31
48792;BME280;34587;48.816;9.420;2023-02-17T13:42:42;99553.00;;;13.49;67.34
48792;BME280;34587;48.816;9.420;2023-02-17T13:47:54;99560.69;;;13.55;66.91
48792;BME280;34587;48.816;9.420;2023-02-17T13:50:45;99553.03;;;13.46;67.00
48792;BME280;34587;48.816;9.420;2023-02-17T13:53:30;99550.28;;;13.55;66.37
48792;BME280;34587;48.816;9.420;2023-02-17T13:56:02;99554.47;;;13.64;66.56
48792;BME280;34587;48.816;9.420;2023-02-17T13:58:33;99548.50;;;13.57;66.63
48792;BME280;34587;48.816;9.420;2023-02-17T14:01:00;99543.88;;;13.73;66.26
48792;BME280;34587;48.816;9.420;2023-02-17T14:03:34;99549.91;;;13.75;66.20
48792;BME280;34587;48.816;9.420;2023-02-17T14:06:06;99547.34;;;13.72;66.34
48792;BME280;34587;48.816;9.420;2023-02-17T14:08:37;99546.19;;;13.87;65.66
48792;BME280;34587;48.816;9.420;2023-02-17T14:11:07;99535.94;;;13.78;65.87
48792;BME280;34587;48.816;9.420;2023-02-17T14:13:34;99532.50;;;13.79;66.28
48792;BME280;34587;48.816;9.420;2023-02-17T14:16:01;99541.13;;;13.81;66.17
48792;BME280;34587;48.816;9.420;2023-02-17T14:18:35;99528.88;;;13.86;66.13
48792;BME280;34587;48.816;9.420;2023-02-17T14:23:44;99526.72;;;14.08;65.43
48792;BME280;34587;48.816;9.420;2023-02-17T14:26:23;99518.78;;;14.54;64.26
48792;BME280;34587;48.816;9.420;2023-02-17T14:28:54;99520.09;;;14.74;63.35
48792;BME280;34587;48.816;9.420;2023-02-17T14:31:19;99523.75;;;14.67;63.53
48792;BME280;34587;48.816;9.420;2023-02-17T14:36:30;99528.75;;;14.76;63.02
48792;BME280;34587;48.816;9.420;2023-02-17T14:38:56;99519.97;;;14.80;63.36
48792;BME280;34587;48.816;9.420;2023-02-17T14:41:22;99521.94;;;14.69;63.95
48792;BME280;34587;48.816;9.420;2023-02-17T14:43:48;99515.16;;;14.61;64.36
48792;BME280;34587;48.816;9.420;2023-02-17T14:46:13;99510.25;;;14.46;64.24
48792;BME280;34587;48.816;9.420;2023-02-17T14:48:43;99519.03;;;14.42;64.56
48792;BME280;34587;48.816;9.420;2023-02-17T14:51:12;99519.38;;;14.27;65.20
48792;BME280;34587;48.816;9.420;2023-02-17T14:53:38;99523.16;;;14.10;65.36
48792;BME280;34587;48.816;9.420;2023-02-17T14:58:38;99518.91;;;14.08;65.88
48792;BME280;34587;48.816;9.420;2023-02-17T15:01:03;99512.59;;;14.17;65.69
48792;BME280;34587;48.816;9.420;2023-02-17T15:03:30;99519.38;;;14.27;65.19
48792;BME280;34587;48.816;9.420;2023-02-17T15:05:55;99516.88;;;14.21;65.27
48792;BME280;34587;48.816;9.420;2023-02-17T15:08:26;99513.81;;;14.42;65.00
48792;BME280;34587;48.816;9.420;2023-02-17T15:10:54;99512.13;;;14.41;64.48
48792;BME280;34587;48.816;9.420;2023-02-17T15:13:20;99515.09;;;14.23;65.16
48792;BME280;34587;48.816;9.420;2023-02-17T15:15:46;99508.28;;;14.15;65.71
48792;BME280;34587;48.816;9.420;2023-02-17T15:18:15;99504.34;;;13.96;66.55
48792;BME280;34587;48.816;9.420;2023-02-17T15:20:43;99515.13;;;13.78;66.57
48792;BME280;34587;48.816;9.420;2023-02-17T15:23:13;99520.31;;;13.78;67.32
48792;BME280;34587;48.816;9.420;2023-02-17T15:25:40;99521.91;;;13.88;66.98
48792;BME280;34587;48.816;9.420;2023-02-17T15:28:05;99517.59;;;13.85;66.86
48792;BME280;34587;48.816;9.420;2023-02-17T15:30:31;99518.44;;;13.86;66.90
48792;BME280;34587;48.816;9.420;2023-02-17T15:32:56;99521.31;;;13.74;66.70
48792;BME280;34587;48.816;9.420;2023-02-17T15:35:24;99517.06;;;13.67;66.92
48792;BME280;34587;48.816;9.420;2023-02-17T15:37:50;99518.63;;;13.77;66.83
48792;BME280;34587;48.816;9.420;2023-02-17T15:40:23;99529.13;;;13.74;66.25
48792;BME280;34587;48.816;9.420;2023-02-17T15:42:52;99521.38;;;13.69;66.77
48792;BME280;34587;48.816;9.420;2023-02-17T15:45:19;99520.63;;;13.62;66.43
48792;BME280;34587;48.816;9.420;2023-02-17T15:47:46;99529.31;;;13.61;66.83
48792;BME280;34587;48.816;9.420;2023-02-17T15:50:14;99532.50;;;13.79;66.54
48792;BME280;34587;48.816;9.420;2023-02-17T15:52:44;99524.88;;;13.67;66.58
48792;BME280;34587;48.816;9.420;2023-02-17T15:55:10;99531.31;;;13.47;66.98
48792;BME280;34587;48.816;9.420;2023-02-17T15:57:45;99523.47;;;13.49;67.55
48792;BME280;34587;48.816;9.420;2023-02-17T16:00:21;99517.19;;;13.60;67.11
48792;BME280;34587;48.816;9.420;2023-02-17T16:02:47;99510.28;;;13.59;66.94
48792;BME280;34587;48.816;9.420;2023-02-17T16:05:15;99519.16;;;13.49;67.42
48792;BME280;34587;48.816;9.420;2023-02-17T16:07:42;99518.53;;;13.35;67.88
48792;BME280;34587;48.816;9.420;2023-02-17T16:10:10;99521.06;;;13.38;67.65
48792;BME280;34587;48.816;9.420;2023-02-17T16:12:36;99528.06;;;13.36;67.66
48792;BME280;34587;48.816;9.420;2023-02-17T16:15:03;99526.38;;;13.32;68.17
48792;BME280;34587;48.816;9.420;2023-02-17T16:17:28;99530.03;;;13.22;68.08
48792;BME280;34587;48.816;9.420;2023-02-17T16:19:54;99537.97;;;13.11;68.43
48792;BME280;34587;48.816;9.420;2023-02-17T16:22:19;99533.63;;;13.11;68.50
48792;BME280;34587;48.816;9.420;2023-02-17T16:24:44;99538.09;;;13.03;69.00
48792;BME280;34587;48.816;9.420;2023-02-17T16:27:14;99525.19;;;12.97;69.09
48792;BME280;34587;48.816;9.420;2023-02-17T16:29:41;99524.50;;;12.84;69.54
48792;BME280;34587;48.816;9.420;2023-02-17T16:32:08;99526.16;;;12.90;69.54
48792;BME280;34587;48.816;9.420;2023-02-17T16:34:34;99528.84;;;12.84;69.79
48792;BME280;34587;48.816;9.420;2023-02-17T16:37:02;99528.81;;;12.85;69.50
48792;BME280;34587;48.816;9.420;2023-02-17T16:39:28;99537.66;;;12.74;70.08
48792;BME280;34587;48.816;9.420;2023-02-17T16:41:53;99535.75;;;12.85;69.81
48792;BME280;34587;48.816;9.420;2023-02-17T16:44:20;99544.47;;;12.81;70.11
48792;BME280;34587;48.816;9.420;2023-02-17T16:46:48;99532.53;;;12.69;70.38
48792;BME280;34587;48.816;9.420;2023-02-17T16:49:23;99536.00;;;12.70;70.08
48792;BME280;34587;48.816;9.420;2023-02-17T16:51:50;99545.53;;;12.69;70.47
48792;BME280;34587;48.816;9.420;2023-02-17T16:54:17;99542.03;;;12.70;70.26
48792;BME280;34587;48.816;9.420;2023-02-17T16:56:46;99547.13;;;12.79;69.57
48792;BME280;34587;48.816;9.420;2023-02-17T16:59:17;99554.09;;;12.77;69.84
48792;BME280;34587;48.816;9.420;2023-02-17T17:01:43;99553.16;;;12.83;69.73
48792;BME280;34587;48.816;9.420;2023-02-17T17:04:08;99553.38;;;12.68;70.18
48792;BME280;34587;48.816;9.420;2023-02-17T17:06:34;99551.47;;;12.79;69.48
48792;BME280;34587;48.816;9.420;2023-02-17T17:09:01;99559.41;;;12.70;69.76
48792;BME280;34587;48.816;9.420;2023-02-17T17:11:27;99546.28;;;12.76;70.06
48792;BME280;34587;48.816;9.420;2023-02-17T17:13:53;99552.34;;;12.78;69.98
48792;BME280;34587;48.816;9.420;2023-02-17T17:16:28;99556.66;;;12.79;69.61
48792;BME280;34587;48.816;9.420;2023-02-17T17:18:56;99560.19;;;12.75;70.08
48792;BME280;34587;48.816;9.420;2023-02-17T17:21:22;99548.88;;;12.79;70.16
48792;BME280;34587;48.816;9.420;2023-02-17T17:23:47;99548.06;;;12.74;70.25
48792;BME280;34587;48.816;9.420;2023-02-17T17:26:25;99547.94;;;12.83;69.68
48792;BME280;34587;48.816;9.420;2023-02-17T17:28:51;99554.03;;;12.82;69.78
48792;BME280;34587;48.816;9.420;2023-02-17T17:31:17;99556.56;;;12.85;69.58
48792;BME280;34587;48.816;9.420;2023-02-17T17:33:44;99548.84;;;12.80;69.86
48792;BME280;34587;48.816;9.420;2023-02-17T17:36:23;99534.06;;;12.84;70.01
48792;BME280;34587;48.816;9.420;2023-02-17T17:38:51;99534.06;;;12.84;69.84
48792;BME280;34587;48.816;9.420;2023-02-17T17:41:16;99532.28;;;12.86;69.54
48792;BME280;34587;48.816;9.420;2023-02-17T17:43:42;99535.66;;;12.93;69.62
48792;BME280;34587;48.816;9.420;2023-02-17T17:46:14;99535.59;;;12.97;69.37
48792;BME280;34587;48.816;9.420;2023-02-17T17:48:40;99544.31;;;12.93;69.37
48792;BME280;34587;48.816;9.420;2023-02-17T17:51:05;99549.59;;;12.89;69.93
48792;BME280;34587;48.816;9.420;2023-02-17T17:53:31;99556.53;;;12.88;69.72
48792;BME280;34587;48.816;9.420;2023-02-17T17:55:56;99543.50;;;12.91;69.77
48792;BME280;34587;48.816;9.420;2023-02-17T17:58:21;99545.22;;;12.91;69.59
48792;BME280;34587;48.816;9.420;2023-02-17T18:00:46;99551.38;;;12.85;70.09
48792;BME280;34587;48.816;9.420;2023-02-17T18:03:12;99561.69;;;12.90;69.93
48792;BME280;34587;48.816;9.420;2023-02-17T18:05:38;99547.03;;;12.85;69.84
48792;BME280;34587;48.816;9.420;2023-02-17T18:08:04;99557.31;;;12.93;69.70
48792;BME280;34587;48.816;9.420;2023-02-17T18:10:30;99551.31;;;12.91;69.96
48792;BME280;34587;48.816;9.420;2023-02-17T18:12:57;99558.22;;;12.92;69.50
48792;BME280;34587;48.816;9.420;2023-02-17T18:15:22;99561.59;;;12.97;69.65
48792;BME280;34587;48.816;9.420;2023-02-17T18:17:48;99570.41;;;12.89;70.01
48792;BME280;34587;48.816;9.420;2023-02-17T18:20:15;99579.25;;;12.77;70.62
48792;BME280;34587;48.816;9.420;2023-02-17T18:22:40;99577.44;;;12.82;70.29
48792;BME280;34587;48.816;9.420;2023-02-17T18:25:06;99579.25;;;12.77;70.75
48792;BME280;34587;48.816;9.420;2023-02-17T18:27:42;99574.91;;;12.76;70.74
48792;BME280;34587;48.816;9.420;2023-02-17T18:30:10;99583.66;;;12.72;71.16
48792;BME280;34587;48.816;9.420;2023-02-17T18:32:36;99594.84;;;12.77;70.99
48792;BME280;34587;48.816;9.420;2023-02-17T18:35:01;99590.59;;;12.70;71.31
48792;BME280;34587;48.816;9.420;2023-02-17T18:37:27;99588.91;;;12.66;71.58
48792;BME280;34587;48.816;9.420;2023-02-17T18:39:52;99588.97;;;12.61;71.62